sensor_id;sensor_type;location;lat;lon;timestamp;P1;durP1;ratioP1;P2;durP2;ratioP2
19038;SDS011;9652;49.014;12.052;2023-09-19T00:00:40;2.77;;;1.37;;
19038;SDS011;9652;49.014;12.052;2023-09-19T00:03:07;1.90;;;1.50;;
19038;SDS011;9652;49.014;12.052;2023-09-19T00:05:37;2.20;;;1.60;;
19038;SDS011;9652;49.014;12.052;2023-09-19T00:08:05;2.00;;;1.70;;
19038;SDS011;9652;49.014;12.052;2023-09-19T00:10:33;3.27;;;1.57;;
19038;SDS011;9652;49.014;12.052;2023-09-19T00:13:01;2.90;;;1.47;;
19038;SDS011;9652;49.014;12.052;2023-09-19T00:15:31;2.37;;;1.40;;
19038;SDS011;9652;49.014;12.052;2023-09-19T00:18:04;1.30;;;1.20;;
19038;SDS011;9652;49.014;12.052;2023-09-19T00:20:35;1.70;;;1.60;;
19038;SDS011;9652;49.014;12.052;2023-09-19T00:23:03;1.50;;;1.40;;
19038;SDS011;9652;49.014;12.052;2023-09-19T00:25:34;1.47;;;1.33;;
19038;SDS011;9652;49.014;12.052;2023-09-19T00:28:02;2.27;;;1.70;;
19038;SDS011;9652;49.014;12.052;2023-09-19T00:30:31;1.53;;;1.40;;
19038;SDS011;9652;49.014;12.052;2023-09-19T00:32:58;2.83;;;2.00;;
19038;SDS011;9652;49.014;12.052;2023-09-19T00:35:28;1.80;;;1.43;;
19038;SDS011;9652;49.014;12.052;2023-09-19T00:37:57;1.57;;;1.40;;
19038;SDS011;9652;49.014;12.052;2023-09-19T00:40:24;1.73;;;1.30;;
19038;SDS011;9652;49.014;12.052;2023-09-19T00:42:52;3.33;;;1.60;;
19038;SDS011;9652;49.014;12.052;2023-09-19T00:45:25;3.50;;;1.37;;
19038;SDS011;9652;49.014;12.052;2023-09-19T00:47:54;1.73;;;1.23;;
19038;SDS011;9652;49.014;12.052;2023-09-19T00:50:23;2.93;;;1.40;;
19038;SDS011;9652;49.014;12.052;2023-09-19T00:52:54;3.50;;;1.50;;
19038;SDS011;9652;49.014;12.052;2023-09-19T00:55:24;2.63;;;1.70;;
19038;SDS011;9652;49.014;12.052;2023-09-19T00:57:53;2.80;;;1.50;;
19038;SDS011;9652;49.014;12.052;2023-09-19T01:00:22;5.63;;;2.10;;
19038;SDS011;9652;49.014;12.052;2023-09-19T01:02:49;2.23;;;1.50;;
19038;SDS011;9652;49.014;12.052;2023-09-19T01:05:17;2.27;;;1.40;;
19038;SDS011;9652;49.014;12.052;2023-09-19T01:07:44;3.33;;;1.10;;
19038;SDS011;9652;49.014;12.052;2023-09-19T01:10:14;1.60;;;1.30;;
19038;SDS011;9652;49.014;12.052;2023-09-19T01:12:51;1.23;;;1.10;;
19038;SDS011;9652;49.014;12.052;2023-09-19T01:15:28;1.40;;;1.30;;
19038;SDS011;9652;49.014;12.052;2023-09-19T01:18:11;1.60;;;1.20;;
19038;SDS011;9652;49.014;12.052;2023-09-19T01:20:53;1.70;;;1.10;;
19038;SDS011;9652;49.014;12.052;2023-09-19T01:23:35;1.53;;;1.30;;
19038;SDS011;9652;49.014;12.052;2023-09-19T01:26:39;1.67;;;1.20;;
19038;SDS011;9652;49.014;12.052;2023-09-19T01:29:38;2.30;;;1.30;;
19038;SDS011;9652;49.014;12.052;2023-09-19T01:32:11;1.73;;;1.40;;
19038;SDS011;9652;49.014;12.052;2023-09-19T01:34:46;1.57;;;1.37;;
19038;SDS011;9652;49.014;12.052;2023-09-19T01:37:15;1.83;;;1.30;;
19038;SDS011;9652;49.014;12.052;2023-09-19T01:39:45;2.50;;;1.40;;
19038;SDS011;9652;49.014;12.052;2023-09-19T01:42:18;1.40;;;1.30;;
19038;SDS011;9652;49.014;12.052;2023-09-19T01:44:59;3.10;;;1.23;;
19038;SDS011;9652;49.014;12.052;2023-09-19T01:47:38;1.80;;;1.30;;
19038;SDS011;9652;49.014;12.052;2023-09-19T01:50:17;7.20;;;1.30;;
19038;SDS011;9652;49.014;12.052;2023-09-19T01:52:57;1.67;;;1.20;;
19038;SDS011;9652;49.014;12.052;2023-09-19T01:55:35;1.80;;;1.30;;
19038;SDS011;9652;49.014;12.052;2023-09-19T01:58:12;2.13;;;1.40;;
19038;SDS011;9652;49.014;12.052;2023-09-19T02:00:48;1.80;;;1.27;;
19038;SDS011;9652;49.014;12.052;2023-09-19T02:03:18;1.50;;;1.40;;
19038;SDS011;9652;49.014;12.052;2023-09-19T02:05:49;1.47;;;1.30;;
19038;SDS011;9652;49.014;12.052;2023-09-19T02:08:18;2.30;;;1.23;;
19038;SDS011;9652;49.014;12.052;2023-09-19T02:10:46;1.70;;;1.07;;
19038;SDS011;9652;49.014;12.052;2023-09-19T02:13:14;3.50;;;1.30;;
19038;SDS011;9652;49.014;12.052;2023-09-19T02:15:44;0.90;;;0.90;;
19038;SDS011;9652;49.014;12.052;2023-09-19T02:18:11;1.17;;;1.00;;
19038;SDS011;9652;49.014;12.052;2023-09-19T02:20:40;2.47;;;1.37;;
19038;SDS011;9652;49.014;12.052;2023-09-19T02:23:08;1.30;;;1.10;;
19038;SDS011;9652;49.014;12.052;2023-09-19T02:25:37;2.30;;;1.30;;
19038;SDS011;9652;49.014;12.052;2023-09-19T02:28:06;1.30;;;1.20;;
19038;SDS011;9652;49.014;12.052;2023-09-19T02:30:34;1.40;;;1.10;;
19038;SDS011;9652;49.014;12.052;2023-09-19T02:33:02;3.13;;;1.17;;
19038;SDS011;9652;49.014;12.052;2023-09-19T02:35:30;2.10;;;1.10;;
19038;SDS011;9652;49.014;12.052;2023-09-19T02:38:02;2.17;;;1.30;;
19038;SDS011;9652;49.014;12.052;2023-09-19T02:40:31;1.50;;;1.30;;
19038;SDS011;9652;49.014;12.052;2023-09-19T02:43:01;1.70;;;1.27;;
19038;SDS011;9652;49.014;12.052;2023-09-19T02:45:28;1.63;;;1.33;;
19038;SDS011;9652;49.014;12.052;2023-09-19T02:47:56;1.13;;;1.03;;
19038;SDS011;9652;49.014;12.052;2023-09-19T02:50:23;4.33;;;1.30;;
19038;SDS011;9652;49.014;12.052;2023-09-19T02:52:50;1.30;;;1.10;;
19038;SDS011;9652;49.014;12.052;2023-09-19T02:55:20;1.47;;;1.10;;
19038;SDS011;9652;49.014;12.052;2023-09-19T02:57:48;1.63;;;1.20;;
19038;SDS011;9652;49.014;12.052;2023-09-19T03:00:17;3.10;;;1.27;;
19038;SDS011;9652;49.014;12.052;2023-09-19T03:02:47;1.40;;;1.20;;
19038;SDS011;9652;49.014;12.052;2023-09-19T03:05:14;1.33;;;1.10;;
19038;SDS011;9652;49.014;12.052;2023-09-19T03:07:42;1.00;;;0.90;;
19038;SDS011;9652;49.014;12.052;2023-09-19T03:10:11;1.30;;;1.10;;
19038;SDS011;9652;49.014;12.052;2023-09-19T03:12:41;1.10;;;1.00;;
19038;SDS011;9652;49.014;12.052;2023-09-19T03:15:08;1.47;;;0.90;;
19038;SDS011;9652;49.014;12.052;2023-09-19T03:17:36;1.83;;;1.40;;
19038;SDS011;9652;49.014;12.052;2023-09-19T03:20:04;2.03;;;1.30;;
19038;SDS011;9652;49.014;12.052;2023-09-19T03:22:34;1.30;;;1.20;;
19038;SDS011;9652;49.014;12.052;2023-09-19T03:25:01;1.40;;;1.30;;
19038;SDS011;9652;49.014;12.052;2023-09-19T03:27:35;2.50;;;1.80;;
19038;SDS011;9652;49.014;12.052;2023-09-19T03:30:05;4.43;;;1.50;;
19038;SDS011;9652;49.014;12.052;2023-09-19T03:32:34;1.87;;;1.20;;
19038;SDS011;9652;49.014;12.052;2023-09-19T03:35:02;2.40;;;1.20;;
19038;SDS011;9652;49.014;12.052;2023-09-19T03:37:31;2.00;;;1.27;;
19038;SDS011;9652;49.014;12.052;2023-09-19T03:39:59;1.80;;;1.47;;
19038;SDS011;9652;49.014;12.052;2023-09-19T03:42:30;2.00;;;1.47;;
19038;SDS011;9652;49.014;12.052;2023-09-19T03:44:57;2.80;;;1.10;;
19038;SDS011;9652;49.014;12.052;2023-09-19T03:47:27;2.57;;;1.20;;
19038;SDS011;9652;49.014;12.052;2023-09-19T03:49:56;2.47;;;1.20;;
19038;SDS011;9652;49.014;12.052;2023-09-19T03:52:23;1.47;;;1.30;;
19038;SDS011;9652;49.014;12.052;2023-09-19T03:54:52;1.77;;;1.30;;
19038;SDS011;9652;49.014;12.052;2023-09-19T03:57:19;1.33;;;1.20;;
19038;SDS011;9652;49.014;12.052;2023-09-19T03:59:46;3.00;;;1.27;;
19038;SDS011;9652;49.014;12.052;2023-09-19T04:02:14;1.63;;;1.30;;
19038;SDS011;9652;49.014;12.052;2023-09-19T04:04:50;1.60;;;1.13;;
19038;SDS011;9652;49.014;12.052;2023-09-19T04:07:18;1.30;;;1.10;;
19038;SDS011;9652;49.014;12.052;2023-09-19T04:09:47;1.87;;;0.93;;
19038;SDS011;9652;49.014;12.052;2023-09-19T04:12:15;1.33;;;1.23;;
19038;SDS011;9652;49.014;12.052;2023-09-19T04:14:43;1.20;;;1.00;;
19038;SDS011;9652;49.014;12.052;2023-09-19T04:17:11;2.23;;;1.73;;
19038;SDS011;9652;49.014;12.052;2023-09-19T04:19:38;2.60;;;1.10;;
19038;SDS011;9652;49.014;12.052;2023-09-19T04:22:08;2.30;;;1.50;;
19038;SDS011;9652;49.014;12.052;2023-09-19T04:24:36;2.77;;;1.50;;
19038;SDS011;9652;49.014;12.052;2023-09-19T04:27:04;2.57;;;1.17;;
19038;SDS011;9652;49.014;12.052;2023-09-19T04:29:31;1.40;;;0.97;;
19038;SDS011;9652;49.014;12.052;2023-09-19T04:31:59;1.37;;;1.20;;
19038;SDS011;9652;49.014;12.052;2023-09-19T04:34:26;3.30;;;1.23;;
19038;SDS011;9652;49.014;12.052;2023-09-19T04:36:53;1.87;;;1.30;;
19038;SDS011;9652;49.014;12.052;2023-09-19T04:39:24;1.60;;;1.03;;
19038;SDS011;9652;49.014;12.052;2023-09-19T04:41:52;1.83;;;1.23;;
19038;SDS011;9652;49.014;12.052;2023-09-19T04:44:20;3.53;;;1.50;;
19038;SDS011;9652;49.014;12.052;2023-09-19T04:46:47;2.27;;;1.53;;
19038;SDS011;9652;49.014;12.052;2023-09-19T04:49:14;1.63;;;1.00;;
19038;SDS011;9652;49.014;12.052;2023-09-19T04:51:42;2.60;;;1.00;;
19038;SDS011;9652;49.014;12.052;2023-09-19T04:54:09;1.97;;;1.30;;
19038;SDS011;9652;49.014;12.052;2023-09-19T04:56:37;2.37;;;1.07;;
19038;SDS011;9652;49.014;12.052;2023-09-19T04:59:05;2.73;;;1.20;;
19038;SDS011;9652;49.014;12.052;2023-09-19T05:01:32;2.23;;;1.20;;
19038;SDS011;9652;49.014;12.052;2023-09-19T05:04:00;2.30;;;0.97;;
19038;SDS011;9652;49.014;12.052;2023-09-19T05:06:30;2.00;;;1.00;;
19038;SDS011;9652;49.014;12.052;2023-09-19T05:09:00;1.33;;;1.20;;
19038;SDS011;9652;49.014;12.052;2023-09-19T05:11:30;4.77;;;1.40;;
19038;SDS011;9652;49.014;12.052;2023-09-19T05:13:59;1.97;;;1.40;;
19038;SDS011;9652;49.014;12.052;2023-09-19T05:16:29;1.23;;;0.90;;
19038;SDS011;9652;49.014;12.052;2023-09-19T05:18:56;2.53;;;1.20;;
19038;SDS011;9652;49.014;12.052;2023-09-19T05:21:25;1.90;;;1.10;;
19038;SDS011;9652;49.014;12.052;2023-09-19T05:23:54;1.50;;;1.10;;
19038;SDS011;9652;49.014;12.052;2023-09-19T05:26:21;1.60;;;1.00;;
19038;SDS011;9652;49.014;12.052;2023-09-19T05:28:49;1.33;;;0.90;;
19038;SDS011;9652;49.014;12.052;2023-09-19T05:31:17;1.03;;;0.90;;
19038;SDS011;9652;49.014;12.052;2023-09-19T05:33:44;2.90;;;1.00;;
19038;SDS011;9652;49.014;12.052;2023-09-19T05:36:15;1.20;;;1.10;;
19038;SDS011;9652;49.014;12.052;2023-09-19T05:38:42;0.83;;;0.80;;
19038;SDS011;9652;49.014;12.052;2023-09-19T05:41:10;1.00;;;0.90;;
19038;SDS011;9652;49.014;12.052;2023-09-19T05:43:38;2.77;;;1.00;;
19038;SDS011;9652;49.014;12.052;2023-09-19T05:46:06;3.57;;;1.30;;
19038;SDS011;9652;49.014;12.052;2023-09-19T05:48:35;1.77;;;1.53;;
19038;SDS011;9652;49.014;12.052;2023-09-19T05:51:04;1.30;;;0.97;;
19038;SDS011;9652;49.014;12.052;2023-09-19T05:53:31;2.00;;;1.03;;
19038;SDS011;9652;49.014;12.052;2023-09-19T05:55:59;1.80;;;1.00;;
19038;SDS011;9652;49.014;12.052;2023-09-19T05:58:26;1.00;;;0.90;;
19038;SDS011;9652;49.014;12.052;2023-09-19T06:00:53;1.10;;;1.00;;
19038;SDS011;9652;49.014;12.052;2023-09-19T06:03:21;2.77;;;1.30;;
19038;SDS011;9652;49.014;12.052;2023-09-19T06:05:50;1.03;;;0.90;;
19038;SDS011;9652;49.014;12.052;2023-09-19T06:08:18;1.70;;;1.20;;
19038;SDS011;9652;49.014;12.052;2023-09-19T06:10:45;1.13;;;1.00;;
19038;SDS011;9652;49.014;12.052;2023-09-19T06:13:14;1.27;;;1.00;;
19038;SDS011;9652;49.014;12.052;2023-09-19T06:15:41;2.33;;;1.23;;
19038;SDS011;9652;49.014;12.052;2023-09-19T06:18:10;2.93;;;1.20;;
19038;SDS011;9652;49.014;12.052;2023-09-19T06:20:40;2.07;;;1.00;;
19038;SDS011;9652;49.014;12.052;2023-09-19T06:23:10;1.80;;;0.90;;
19038;SDS011;9652;49.014;12.052;2023-09-19T06:25:38;1.40;;;1.20;;
19038;SDS011;9652;49.014;12.052;2023-09-19T06:28:06;2.27;;;0.67;;
19038;SDS011;9652;49.014;12.052;2023-09-19T06:30:37;1.13;;;0.93;;
19038;SDS011;9652;49.014;12.052;2023-09-19T06:33:06;1.87;;;0.70;;
19038;SDS011;9652;49.014;12.052;2023-09-19T06:35:33;1.10;;;0.90;;
19038;SDS011;9652;49.014;12.052;2023-09-19T06:38:02;1.00;;;0.60;;
19038;SDS011;9652;49.014;12.052;2023-09-19T06:40:33;0.93;;;0.80;;
19038;SDS011;9652;49.014;12.052;2023-09-19T06:43:01;2.60;;;1.10;;
19038;SDS011;9652;49.014;12.052;2023-09-19T06:45:29;1.57;;;1.00;;
19038;SDS011;9652;49.014;12.052;2023-09-19T06:47:57;1.00;;;0.67;;
19038;SDS011;9652;49.014;12.052;2023-09-19T06:50:25;1.57;;;0.80;;
19038;SDS011;9652;49.014;12.052;2023-09-19T06:52:53;1.30;;;0.80;;
19038;SDS011;9652;49.014;12.052;2023-09-19T06:55:22;0.73;;;0.70;;
19038;SDS011;9652;49.014;12.052;2023-09-19T06:57:51;1.27;;;0.90;;
19038;SDS011;9652;49.014;12.052;2023-09-19T07:00:19;1.23;;;0.60;;
19038;SDS011;9652;49.014;12.052;2023-09-19T07:02:54;0.87;;;0.60;;
19038;SDS011;9652;49.014;12.052;2023-09-19T07:05:24;2.70;;;0.87;;
19038;SDS011;9652;49.014;12.052;2023-09-19T07:07:52;0.87;;;0.70;;
19038;SDS011;9652;49.014;12.052;2023-09-19T07:10:21;0.80;;;0.80;;
19038;SDS011;9652;49.014;12.052;2023-09-19T07:12:55;2.00;;;0.77;;
19038;SDS011;9652;49.014;12.052;2023-09-19T07:15:24;0.63;;;0.63;;
19038;SDS011;9652;49.014;12.052;2023-09-19T07:17:51;1.00;;;0.70;;
19038;SDS011;9652;49.014;12.052;2023-09-19T07:20:19;0.60;;;0.60;;
19038;SDS011;9652;49.014;12.052;2023-09-19T07:22:46;2.20;;;0.70;;
19038;SDS011;9652;49.014;12.052;2023-09-19T07:25:14;1.60;;;0.60;;
19038;SDS011;9652;49.014;12.052;2023-09-19T07:27:42;1.07;;;0.70;;
19038;SDS011;9652;49.014;12.052;2023-09-19T07:30:12;0.87;;;0.83;;
19038;SDS011;9652;49.014;12.052;2023-09-19T07:32:42;1.37;;;0.70;;
19038;SDS011;9652;49.014;12.052;2023-09-19T07:35:09;2.20;;;0.73;;
19038;SDS011;9652;49.014;12.052;2023-09-19T07:37:37;1.30;;;0.60;;
19038;SDS011;9652;49.014;12.052;2023-09-19T07:40:04;1.00;;;0.73;;
19038;SDS011;9652;49.014;12.052;2023-09-19T07:42:34;0.70;;;0.70;;
19038;SDS011;9652;49.014;12.052;2023-09-19T07:45:04;0.80;;;0.43;;
19038;SDS011;9652;49.014;12.052;2023-09-19T07:47:34;0.90;;;0.70;;
19038;SDS011;9652;49.014;12.052;2023-09-19T07:50:01;1.10;;;0.60;;
19038;SDS011;9652;49.014;12.052;2023-09-19T07:52:29;1.13;;;0.57;;
19038;SDS011;9652;49.014;12.052;2023-09-19T07:54:58;0.97;;;0.80;;
19038;SDS011;9652;49.014;12.052;2023-09-19T07:57:26;1.13;;;0.60;;
19038;SDS011;9652;49.014;12.052;2023-09-19T07:59:54;2.20;;;0.70;;
19038;SDS011;9652;49.014;12.052;2023-09-19T08:02:22;3.47;;;0.90;;
19038;SDS011;9652;49.014;12.052;2023-09-19T08:04:50;0.70;;;0.70;;
19038;SDS011;9652;49.014;12.052;2023-09-19T08:07:17;0.80;;;0.60;;
19038;SDS011;9652;49.014;12.052;2023-09-19T08:09:44;0.67;;;0.60;;
19038;SDS011;9652;49.014;12.052;2023-09-19T08:12:13;1.10;;;0.50;;
19038;SDS011;9652;49.014;12.052;2023-09-19T08:14:42;0.80;;;0.60;;
19038;SDS011;9652;49.014;12.052;2023-09-19T08:17:09;1.10;;;0.60;;
19038;SDS011;9652;49.014;12.052;2023-09-19T08:19:37;2.07;;;0.60;;
19038;SDS011;9652;49.014;12.052;2023-09-19T08:22:08;0.60;;;0.53;;
19038;SDS011;9652;49.014;12.052;2023-09-19T08:24:36;1.00;;;0.70;;
19038;SDS011;9652;49.014;12.052;2023-09-19T08:27:04;1.03;;;0.70;;
19038;SDS011;9652;49.014;12.052;2023-09-19T08:29:34;0.93;;;0.40;;
19038;SDS011;9652;49.014;12.052;2023-09-19T08:32:01;0.93;;;0.57;;
19038;SDS011;9652;49.014;12.052;2023-09-19T08:34:30;1.23;;;0.47;;
19038;SDS011;9652;49.014;12.052;2023-09-19T08:36:58;1.07;;;0.70;;
19038;SDS011;9652;49.014;12.052;2023-09-19T08:39:26;1.90;;;0.77;;
19038;SDS011;9652;49.014;12.052;2023-09-19T08:41:59;0.77;;;0.43;;
19038;SDS011;9652;49.014;12.052;2023-09-19T08:44:27;0.57;;;0.53;;
19038;SDS011;9652;49.014;12.052;2023-09-19T08:46:58;2.33;;;0.60;;
19038;SDS011;9652;49.014;12.052;2023-09-19T08:49:37;2.03;;;0.80;;
19038;SDS011;9652;49.014;12.052;2023-09-19T08:52:20;2.73;;;0.53;;
19038;SDS011;9652;49.014;12.052;2023-09-19T08:54:55;1.50;;;0.70;;
19038;SDS011;9652;49.014;12.052;2023-09-19T08:57:27;1.83;;;0.40;;
19038;SDS011;9652;49.014;12.052;2023-09-19T09:00:01;2.63;;;0.63;;
19038;SDS011;9652;49.014;12.052;2023-09-19T09:02:35;1.13;;;0.60;;
19038;SDS011;9652;49.014;12.052;2023-09-19T09:05:06;2.17;;;0.60;;
19038;SDS011;9652;49.014;12.052;2023-09-19T09:07:36;0.73;;;0.63;;
19038;SDS011;9652;49.014;12.052;2023-09-19T09:10:05;1.00;;;0.80;;
19038;SDS011;9652;49.014;12.052;2023-09-19T09:12:34;0.90;;;0.50;;
19038;SDS011;9652;49.014;12.052;2023-09-19T09:15:05;3.23;;;0.80;;
19038;SDS011;9652;49.014;12.052;2023-09-19T09:17:34;2.03;;;0.70;;
19038;SDS011;9652;49.014;12.052;2023-09-19T09:20:01;0.97;;;0.60;;
19038;SDS011;9652;49.014;12.052;2023-09-19T09:22:30;1.13;;;0.67;;
19038;SDS011;9652;49.014;12.052;2023-09-19T09:24:58;0.87;;;0.57;;
19038;SDS011;9652;49.014;12.052;2023-09-19T09:27:30;2.13;;;0.67;;
19038;SDS011;9652;49.014;12.052;2023-09-19T09:29:57;2.77;;;0.80;;
19038;SDS011;9652;49.014;12.052;2023-09-19T09:32:25;1.37;;;0.77;;
19038;SDS011;9652;49.014;12.052;2023-09-19T09:34:55;1.57;;;0.60;;
19038;SDS011;9652;49.014;12.052;2023-09-19T09:37:24;0.90;;;0.67;;
19038;SDS011;9652;49.014;12.052;2023-09-19T09:39:55;1.07;;;0.50;;
19038;SDS011;9652;49.014;12.052;2023-09-19T09:42:44;0.80;;;0.70;;
19038;SDS011;9652;49.014;12.052;2023-09-19T09:45:13;1.17;;;0.60;;
19038;SDS011;9652;49.014;12.052;2023-09-19T09:47:42;1.43;;;0.60;;
19038;SDS011;9652;49.014;12.052;2023-09-19T09:50:24;0.70;;;0.60;;
19038;SDS011;9652;49.014;12.052;2023-09-19T09:53:22;3.27;;;0.67;;
19038;SDS011;9652;49.014;12.052;2023-09-19T09:56:00;0.50;;;0.50;;
19038;SDS011;9652;49.014;12.052;2023-09-19T09:58:32;0.83;;;0.40;;
19038;SDS011;9652;49.014;12.052;2023-09-19T10:01:01;0.60;;;0.50;;
19038;SDS011;9652;49.014;12.052;2023-09-19T10:03:34;1.07;;;0.70;;
19038;SDS011;9652;49.014;12.052;2023-09-19T10:06:06;0.67;;;0.50;;
19038;SDS011;9652;49.014;12.052;2023-09-19T10:09:03;1.13;;;0.53;;
19038;SDS011;9652;49.014;12.052;2023-09-19T10:11:40;1.20;;;0.60;;
19038;SDS011;9652;49.014;12.052;2023-09-19T10:14:11;1.50;;;0.60;;
19038;SDS011;9652;49.014;12.052;2023-09-19T10:16:45;1.30;;;0.70;;
19038;SDS011;9652;49.014;12.052;2023-09-19T10:19:21;1.00;;;0.50;;
19038;SDS011;9652;49.014;12.052;2023-09-19T10:22:00;1.00;;;0.70;;
19038;SDS011;9652;49.014;12.052;2023-09-19T10:24:29;0.50;;;0.47;;
19038;SDS011;9652;49.014;12.052;2023-09-19T10:26:59;1.17;;;0.60;;
19038;SDS011;9652;49.014;12.052;2023-09-19T10:29:31;3.47;;;0.60;;
19038;SDS011;9652;49.014;12.052;2023-09-19T10:32:02;0.80;;;0.50;;
19038;SDS011;9652;49.014;12.052;2023-09-19T10:34:34;1.20;;;0.90;;
19038;SDS011;9652;49.014;12.052;2023-09-19T10:37:03;1.67;;;0.73;;
19038;SDS011;9652;49.014;12.052;2023-09-19T10:39:34;1.33;;;0.80;;
19038;SDS011;9652;49.014;12.052;2023-09-19T10:42:06;1.37;;;1.20;;
19038;SDS011;9652;49.014;12.052;2023-09-19T10:44:39;1.27;;;0.83;;
19038;SDS011;9652;49.014;12.052;2023-09-19T10:47:11;1.27;;;0.90;;
19038;SDS011;9652;49.014;12.052;2023-09-19T10:49:42;1.20;;;0.67;;
19038;SDS011;9652;49.014;12.052;2023-09-19T10:52:12;0.60;;;0.60;;
19038;SDS011;9652;49.014;12.052;2023-09-19T10:54:45;1.07;;;0.70;;
19038;SDS011;9652;49.014;12.052;2023-09-19T10:57:19;1.23;;;0.77;;
19038;SDS011;9652;49.014;12.052;2023-09-19T11:00:03;1.50;;;1.00;;
19038;SDS011;9652;49.014;12.052;2023-09-19T11:08:52;1.00;;;0.60;;
19038;SDS011;9652;49.014;12.052;2023-09-19T11:11:44;1.30;;;0.80;;
19038;SDS011;9652;49.014;12.052;2023-09-19T11:20:17;0.77;;;0.60;;
19038;SDS011;9652;49.014;12.052;2023-09-19T11:25:48;1.13;;;0.70;;
19038;SDS011;9652;49.014;12.052;2023-09-19T11:28:33;1.13;;;0.80;;
19038;SDS011;9652;49.014;12.052;2023-09-19T11:34:45;0.77;;;0.77;;
19038;SDS011;9652;49.014;12.052;2023-09-19T11:40:44;1.10;;;0.90;;
19038;SDS011;9652;49.014;12.052;2023-09-19T11:43:32;0.75;;;0.60;;
19038;SDS011;9652;49.014;12.052;2023-09-19T11:46:07;2.03;;;0.80;;
19038;SDS011;9652;49.014;12.052;2023-09-19T11:48:34;0.97;;;0.80;;
19038;SDS011;9652;49.014;12.052;2023-09-19T11:51:14;1.00;;;0.90;;
19038;SDS011;9652;49.014;12.052;2023-09-19T11:53:47;1.88;;;0.80;;
19038;SDS011;9652;49.014;12.052;2023-09-19T11:56:16;1.00;;;0.90;;
19038;SDS011;9652;49.014;12.052;2023-09-19T11:58:45;1.20;;;0.80;;
19038;SDS011;9652;49.014;12.052;2023-09-19T12:01:21;1.08;;;0.80;;
19038;SDS011;9652;49.014;12.052;2023-09-19T12:03:52;0.50;;;0.50;;
19038;SDS011;9652;49.014;12.052;2023-09-19T12:06:24;1.40;;;0.73;;
19038;SDS011;9652;49.014;12.052;2023-09-19T12:08:52;1.30;;;0.80;;
19038;SDS011;9652;49.014;12.052;2023-09-19T12:11:21;0.95;;;0.70;;
19038;SDS011;9652;49.014;12.052;2023-09-19T12:13:52;1.27;;;0.70;;
19038;SDS011;9652;49.014;12.052;2023-09-19T12:16:24;0.40;;;0.40;;
19038;SDS011;9652;49.014;12.052;2023-09-19T12:18:51;1.27;;;0.70;;
19038;SDS011;9652;49.014;12.052;2023-09-19T12:21:27;1.00;;;0.50;;
19038;SDS011;9652;49.014;12.052;2023-09-19T12:24:06;0.95;;;0.60;;
19038;SDS011;9652;49.014;12.052;2023-09-19T12:26:39;0.95;;;0.60;;
19038;SDS011;9652;49.014;12.052;2023-09-19T12:29:12;1.92;;;0.75;;
19038;SDS011;9652;49.014;12.052;2023-09-19T12:31:52;0.47;;;0.47;;
19038;SDS011;9652;49.014;12.052;2023-09-19T12:34:24;1.67;;;0.60;;
19038;SDS011;9652;49.014;12.052;2023-09-19T12:37:11;0.83;;;0.70;;
19038;SDS011;9652;49.014;12.052;2023-09-19T12:39:44;0.67;;;0.60;;
19038;SDS011;9652;49.014;12.052;2023-09-19T12:42:14;0.67;;;0.60;;
19038;SDS011;9652;49.014;12.052;2023-09-19T12:44:44;1.47;;;0.90;;
19038;SDS011;9652;49.014;12.052;2023-09-19T12:47:14;0.93;;;0.65;;
19038;SDS011;9652;49.014;12.052;2023-09-19T12:52:44;0.47;;;0.47;;
19038;SDS011;9652;49.014;12.052;2023-09-19T12:55:20;2.40;;;0.63;;
19038;SDS011;9652;49.014;12.052;2023-09-19T12:58:00;0.60;;;0.50;;
19038;SDS011;9652;49.014;12.052;2023-09-19T13:00:36;1.03;;;0.80;;
19038;SDS011;9652;49.014;12.052;2023-09-19T13:03:10;0.90;;;0.73;;
19038;SDS011;9652;49.014;12.052;2023-09-19T13:08:31;1.10;;;0.60;;
19038;SDS011;9652;49.014;12.052;2023-09-19T13:11:04;1.80;;;0.70;;
19038;SDS011;9652;49.014;12.052;2023-09-19T13:13:35;0.90;;;0.50;;
19038;SDS011;9652;49.014;12.052;2023-09-19T13:16:03;0.70;;;0.60;;
19038;SDS011;9652;49.014;12.052;2023-09-19T13:18:47;0.40;;;0.37;;
19038;SDS011;9652;49.014;12.052;2023-09-19T13:21:28;1.10;;;0.50;;
19038;SDS011;9652;49.014;12.052;2023-09-19T13:24:19;0.90;;;0.70;;
19038;SDS011;9652;49.014;12.052;2023-09-19T13:26:53;1.17;;;0.70;;
19038;SDS011;9652;49.014;12.052;2023-09-19T13:29:20;1.00;;;0.70;;
19038;SDS011;9652;49.014;12.052;2023-09-19T13:31:47;0.53;;;0.50;;
19038;SDS011;9652;49.014;12.052;2023-09-19T13:34:18;0.90;;;0.50;;
19038;SDS011;9652;49.014;12.052;2023-09-19T13:36:46;0.70;;;0.50;;
19038;SDS011;9652;49.014;12.052;2023-09-19T13:39:14;1.00;;;0.70;;
19038;SDS011;9652;49.014;12.052;2023-09-19T13:41:43;0.80;;;0.60;;
19038;SDS011;9652;49.014;12.052;2023-09-19T13:44:11;1.10;;;0.60;;
19038;SDS011;9652;49.014;12.052;2023-09-19T13:46:39;0.80;;;0.60;;
19038;SDS011;9652;49.014;12.052;2023-09-19T13:49:10;0.80;;;0.60;;
19038;SDS011;9652;49.014;12.052;2023-09-19T13:51:37;0.97;;;0.80;;
19038;SDS011;9652;49.014;12.052;2023-09-19T13:54:08;1.00;;;0.87;;
19038;SDS011;9652;49.014;12.052;2023-09-19T13:56:37;0.80;;;0.50;;
19038;SDS011;9652;49.014;12.052;2023-09-19T13:59:05;1.05;;;0.57;;
19038;SDS011;9652;49.014;12.052;2023-09-19T14:01:32;0.95;;;0.63;;
19038;SDS011;9652;49.014;12.052;2023-09-19T14:04:00;0.80;;;0.57;;
19038;SDS011;9652;49.014;12.052;2023-09-19T14:06:27;0.90;;;0.50;;
19038;SDS011;9652;49.014;12.052;2023-09-19T14:08:54;1.45;;;0.57;;
19038;SDS011;9652;49.014;12.052;2023-09-19T14:11:21;0.60;;;0.60;;
19038;SDS011;9652;49.014;12.052;2023-09-19T14:13:48;1.23;;;0.80;;
19038;SDS011;9652;49.014;12.052;2023-09-19T14:16:18;0.80;;;0.70;;
19038;SDS011;9652;49.014;12.052;2023-09-19T14:18:47;1.02;;;0.70;;
19038;SDS011;9652;49.014;12.052;2023-09-19T14:21:15;1.50;;;0.80;;
19038;SDS011;9652;49.014;12.052;2023-09-19T14:23:44;1.33;;;0.60;;
19038;SDS011;9652;49.014;12.052;2023-09-19T14:26:11;1.08;;;0.70;;
19038;SDS011;9652;49.014;12.052;2023-09-19T14:28:38;1.83;;;0.60;;
19038;SDS011;9652;49.014;12.052;2023-09-19T14:31:06;1.30;;;0.60;;
19038;SDS011;9652;49.014;12.052;2023-09-19T14:33:35;2.40;;;0.87;;
19038;SDS011;9652;49.014;12.052;2023-09-19T14:36:04;0.47;;;0.40;;
19038;SDS011;9652;49.014;12.052;2023-09-19T14:38:33;0.70;;;0.50;;
19038;SDS011;9652;49.014;12.052;2023-09-19T14:41:01;1.33;;;0.60;;
19038;SDS011;9652;49.014;12.052;2023-09-19T14:43:29;0.97;;;0.60;;
19038;SDS011;9652;49.014;12.052;2023-09-19T14:45:57;0.57;;;0.53;;
19038;SDS011;9652;49.014;12.052;2023-09-19T14:48:29;2.00;;;0.90;;
19038;SDS011;9652;49.014;12.052;2023-09-19T14:51:02;0.80;;;0.60;;
19038;SDS011;9652;49.014;12.052;2023-09-19T14:53:30;0.65;;;0.60;;
19038;SDS011;9652;49.014;12.052;2023-09-19T14:55:59;0.75;;;0.60;;
19038;SDS011;9652;49.014;12.052;2023-09-19T14:58:28;0.90;;;0.70;;
19038;SDS011;9652;49.014;12.052;2023-09-19T15:01:01;0.60;;;0.52;;
19038;SDS011;9652;49.014;12.052;2023-09-19T15:03:31;1.38;;;0.55;;
19038;SDS011;9652;49.014;12.052;2023-09-19T15:05:59;1.67;;;0.47;;
19038;SDS011;9652;49.014;12.052;2023-09-19T15:08:28;0.45;;;0.40;;
19038;SDS011;9652;49.014;12.052;2023-09-19T15:10:55;0.60;;;0.50;;
19038;SDS011;9652;49.014;12.052;2023-09-19T15:13:23;0.60;;;0.40;;
19038;SDS011;9652;49.014;12.052;2023-09-19T15:15:57;1.23;;;0.60;;
19038;SDS011;9652;49.014;12.052;2023-09-19T15:18:26;1.37;;;0.50;;
19038;SDS011;9652;49.014;12.052;2023-09-19T15:20:53;0.75;;;0.50;;
19038;SDS011;9652;49.014;12.052;2023-09-19T15:23:21;0.50;;;0.50;;
19038;SDS011;9652;49.014;12.052;2023-09-19T15:25:49;1.33;;;0.70;;
19038;SDS011;9652;49.014;12.052;2023-09-19T15:28:17;0.70;;;0.60;;
19038;SDS011;9652;49.014;12.052;2023-09-19T15:30:47;0.77;;;0.63;;
19038;SDS011;9652;49.014;12.052;2023-09-19T15:33:15;0.90;;;0.70;;
19038;SDS011;9652;49.014;12.052;2023-09-19T15:35:42;0.60;;;0.60;;